GCTSTTPP

Guest
Details From GCTS - Tenerife Sur
To TTPP - Trinidade Piarco
Flight Number -
Tags Generated
Created
Modified
Stats Distance 2,725 nm / 5,047 km
Max Altitude 0 ft / 0 m
Waypoints 3
Social Downloads 3
Likes 0
Share VATSIM

Download

Looking for another format? Having issues loading an existing format? Contact us
Advertisement - Login to hide

Notes

Generated

Route

GCTS R1535 TTPP

ID Type Via Altitude Latitude Longitude Leg Dist Tot Dist Heading (true) Name
O GCTS APT - 0 ft / 0 m 28.03920˚ -16.58764˚ - 0 nm - -
R1535 FIX - 0 ft / 0 m 10.59533˚ -61.35186˚ 2725 nm 2725 nm 257° / 241° -
O TTPP APT - 0 ft / 0 m 10.59533˚ -61.35186˚ 0 nm 2725 nm 0° / 180° -

Altitude Profile

Advertisement - Login to hide

Weather


0- 5 10 15 20 25 30 35+ Temperature / ° C

Clouds and Precipitation
Forecast for 2018-05-22 12:00 UTC. Updated 5 hours ago

Ground ~20,000 ft ~40,000 ft Winds

GCTS

Details ICAO GCTS (TFS)
Name Tenerife Sur
Region Canary Islands
Timezone Atlantic/Canary (UTC+1.0)
Stats Elevation 209 ft / 64 m (AMSL)
Location 28.044475° -16.572488°
Runways 1
Magnetic Variation 5.066° W

METAR

GCTS 221600Z 26009KT 220V310 9999 FEW031 24/17 Q1016 NOSIG

Decode

TAF

TAF GCTS 221400Z 2215/2315 23011KT 9999 SCT025 TX21/2314Z TN16/2305Z BECMG 2218/2220 06008KT PROB30 TEMPO 2218/2309 DZRA

Decode

Departure Runways

ID Width Length Bearing (true) Bearing (mag) Surface Threshold Offset Overrun Length
08 148 ft / 45 m 10,489 ft / 3,197 m 68.47° 73.54° Asphalt 0 ft / 0 m 0 ft / 0 m
26 148 ft / 45 m 10,489 ft / 3,197 m 248.49° 253.56° Asphalt 0 ft / 0 m 0 ft / 0 m

TTPP

Details ICAO TTPP (POS)
Name Trinidad/Piarco Intl
Region Trinidad and Tobago
Timezone America/Port_of_Spain (UTC-4.0)
Stats Elevation 57 ft / 17 m (AMSL)
Location 10.595370° -61.337239°
Runways 1
Magnetic Variation 15.024° W

METAR

TTPP 221600Z 12013KT 9999 -SHRA VCSH FEW018 30/24 Q1014 NOSIG RMK VCSH N NE SE

Decode

TAF

Not found

Destination Runways

ID Width Length Bearing (true) Bearing (mag) Surface Threshold Offset Overrun Length
10 151 ft / 46 m 10,486 ft / 3,196 m 89.83° 104.85° Asphalt 0 ft / 0 m 79 ft / 24 m
28 151 ft / 46 m 10,486 ft / 3,196 m 269.84° 284.86° Asphalt 0 ft / 0 m 184 ft / 56 m

Approach Navaids

Runway Type Ident Frequency Range Bearing (true) Bearing (mag) Slope Elevation
10 Localiser IPOS 109.70 MHz 18 nm / 33 km 89.49° 104.51° - 57 ft / 17 m (AMSL)
10 Glidescope IPOS 109.70 MHz 10 nm / 19 km 89.83° 104.86° 3.00° 57 ft / 17 m (AMSL)
10 DME IPOS 109.70 MHz 18 nm / 33 km - - - 57 ft / 17 m (AMSL)